Regina International Airport
CYQR : now visible

Airfield :











YOU CAN JOIN US ON...

 
LOGIN :

Register | Disclaimer

   EN    FR    IT 

 









Legend :    VFR   Marginal VFR   IFR   Intensive IFR   Very Intensive IFR
Visi :
Ceiling :
>= 8 km
>= 3000ft
5 to 8 km
1000 to 3000 ft
1500m to 5 km
500 to 1000 ft
800 to 1500m
200 to 500 ft
< 800m
< 200 ft
Symbols :   Thunderstorms  Fog  Heavy snow  Heavy precipitations  Wind > 20 kt






- Airport Elevation : 1894 ft
- IATA code : YQR


CYQR - Regina International

CURRENT METAR :
  • 010200Z 36013KT 15SM OVC015 M06/M09 A2995 RMK SC8 SLP178

EXPIRED METARs :
  • 010100Z 35013KT 15SM OVC016 M05/M08 A2997 RMK SC8 SLP183
  • 010000Z 34015KT 15SM OVC015 M05/M08 A2996 RMK SC8 SLP178

TAF AMD TAF CYQR
Valid from the 01 at 01:00 until the 02 at 00:00 UTC


010113Z 0101/0124 35015KT P6SM OVC015
TEMPO 0101/0112 OVC025
FM011200 34020G30KT P6SM BKN020 OVC120
TEMPO 0112/0120 SCT020 OVC120
FM012000 33020G30KT 1SM -SN BLSN OVC012
TEMPO 0120/0124 3SM -SN OVC025 RMK NXT FCST BY 010600Z



MET'MAP, your aeronautical weather chart ! - Copyright ORBIFLY December 2007 - Disclaimer

ORBIFLY MET'MAP TEAM :

Programming & Development : Alexandra Zaïnal
Concept & original design : Baudouin d'Aumeries
Assistance for programming : Marc-Olivier Méhu
Technical & hardware support : Manuel Goepfert

Contact : metmap@orbifly.com




SOURCES & CREDITS :

   NOAA       Earth
Advisory